| time (UTC) | temp F | wind direction | speed MPH | gust MPH | rain 1hr in | rain 24hr in | rain mn in | humidity % | barometer mb |
| 20260508115811 | 33 | 77 | 0.0 | 0.0 | 0.00 | 0.01 | 0.00 | 87 | 1009.7 |
| 20260508114313 | 33 | 77 | 0.0 | 0.0 | 0.00 | 0.01 | 0.00 | 87 | 1009.8 |
| 20260508111320 | 34 | 77 | 0.0 | 0.0 | 0.00 | 0.01 | 0.00 | 87 | 1010.1 |
| 20260508104326 | 35 | 77 | 0.0 | 0.0 | 0.00 | 0.01 | 0.00 | 86 | 1010.3 |
| 20260508102825 | 36 | 76 | 0.0 | 0.0 | 0.00 | 0.01 | 0.00 | 86 | 1010.4 |
| 20260508101328 | 36 | 77 | 0.0 | 2.0 | 0.00 | 0.01 | 0.00 | 88 | 1010.4 |
| 20260508094315 | 34 | 77 | 0.0 | 2.0 | 0.00 | 0.01 | 0.00 | 88 | 1010.9 |
| 20260508091322 | 33 | 77 | 0.0 | 0.0 | 0.00 | 0.01 | 0.00 | 88 | 1011.3 |
| 20260508085819 | 33 | 77 | 0.0 | 0.0 | 0.00 | 0.01 | 0.00 | 86 | 1011.3 |
| 20260508084323 | 33 | 76 | 0.0 | 0.0 | 0.00 | 0.01 | 0.00 | 87 | 1011.2 |
| 20260508082823 | 33 | 77 | 0.0 | 0.0 | 0.00 | 0.01 | 0.00 | 86 | 1011.2 |
| 20260508081323 | 34 | 77 | 0.0 | 0.0 | 0.00 | 0.01 | 0.00 | 86 | 1011.3 |
| 20260508072817 | 36 | 77 | 0.0 | 0.0 | 0.00 | 0.01 | 0.01 | 85 | 1011.4 |
| 20260508071318 | 36 | 77 | 0.0 | 0.0 | 0.00 | 0.01 | 0.01 | 84 | 1011.4 |
| 20260508065819 | 37 | 76 | 0.0 | 0.0 | 0.00 | 0.01 | 0.01 | 84 | 1011.6 |
| 20260508064319 | 37 | 77 | 0.0 | 0.0 | 0.00 | 0.01 | 0.01 | 84 | 1011.6 |
| 20260508061328 | 38 | 77 | 0.0 | 0.0 | 0.00 | 0.01 | 0.01 | 84 | 1011.7 |
| 20260508055810 | 39 | 360 | 0.0 | 0.0 | 0.00 | 0.01 | 0.01 | 83 | 1011.6 |
| 20260508054310 | 40 | 360 | 0.0 | 0.0 | 0.00 | 0.01 | 0.01 | 83 | 1011.6 |
| 20260508051316 | 41 | 5 | 0.0 | 0.0 | 0.00 | 0.01 | 0.01 | 81 | 1011.7 |
| 20260508045817 | 41 | 5 | 0.0 | 1.0 | 0.00 | 0.01 | 0.01 | 80 | 1011.9 |
| 20260508042820 | 42 | 5 | 1.0 | 2.0 | 0.01 | 0.01 | 0.01 | 83 | 1012.0 |
| 20260508041325 | 40 | 303 | 0.0 | 3.0 | 0.01 | 0.01 | 0.01 | 85 | 1012.3 |
| 20260508035823 | 39 | 53 | 1.0 | 2.0 | 0.01 | 0.01 | 0.01 | 84 | 1012.5 |
| 20260508034307 | 39 | 53 | 1.0 | 4.0 | 0.01 | 0.01 | 0.01 | 83 | 1012.7 |
| 20260508032806 | 40 | 131 | 3.0 | 7.0 | 0.00 | 0.00 | 0.00 | 82 | 1013.4 |
| 20260508031312 | 40 | 248 | 0.0 | 0.0 | 0.00 | 0.00 | 0.00 | 81 | 1013.0 |
| 20260508025809 | 40 | 248 | 0.0 | 0.0 | 0.00 | 0.00 | 0.00 | 80 | 1012.9 |
| 20260508024313 | 40 | 248 | 1.0 | 7.0 | 0.00 | 0.00 | 0.00 | 78 | 1012.9 |
| 20260508022812 | 42 | 244 | 4.0 | 14.0 | 0.00 | 0.00 | 0.00 | 68 | 1012.9 |
| 20260508021317 | 47 | 264 | 6.0 | 10.0 | 0.00 | 0.00 | 0.00 | 51 | 1012.5 |
| 20260508015814 | 49 | 186 | 0.0 | 6.0 | 0.00 | 0.00 | 0.00 | 44 | 1012.0 |
| 20260508012822 | 52 | 217 | 0.0 | 7.0 | 0.00 | 0.00 | 0.00 | 42 | 1012.0 |
| 20260508011322 | 51 | 34 | 0.0 | 3.0 | 0.00 | 0.00 | 0.00 | 44 | 1012.1 |
| 20260508005823 | 51 | 117 | 3.0 | 9.0 | 0.00 | 0.00 | 0.00 | 45 | 1012.1 |
| 20260508004324 | 50 | 89 | 0.0 | 4.0 | 0.00 | 0.00 | 0.00 | 46 | 1012.3 |
| 20260508002808 | 49 | 225 | 3.0 | 10.0 | 0.00 | 0.00 | 0.00 | 47 | 1012.5 |
| 20260508001309 | 49 | 182 | 2.0 | 7.0 | 0.00 | 0.00 | 0.00 | 48 | 1012.8 |
| 20260507232821 | 48 | 229 | 0.0 | 3.0 | 0.00 | 0.00 | 0.00 | 49 | 1013.2 |
| 20260507231321 | 48 | 107 | 0.0 | 4.0 | 0.00 | 0.00 | 0.00 | 51 | 1013.3 |
| 20260507225821 | 47 | 5 | 0.0 | 4.0 | 0.00 | 0.00 | 0.00 | 53 | 1013.4 |
| 20260507222807 | 47 | 196 | 5.0 | 6.0 | 0.00 | 0.01 | 0.00 | 50 | 1013.5 |
| 20260507221308 | 47 | 60 | 0.0 | 5.0 | 0.00 | 0.01 | 0.00 | 54 | 1013.6 |
| 20260507215825 | 47 | 114 | 0.0 | 3.0 | 0.00 | 0.01 | 0.00 | 51 | 1013.5 |
| 20260507214310 | 47 | 112 | 1.0 | 4.0 | 0.00 | 0.01 | 0.00 | 51 | 1013.4 |
| 20260507212809 | 47 | 109 | 2.0 | 5.0 | 0.00 | 0.01 | 0.00 | 52 | 1013.6 |
| 20260507211313 | 47 | 199 | 1.0 | 5.0 | 0.00 | 0.01 | 0.00 | 49 | 1013.4 |
| 20260507205811 | 47 | 145 | 1.0 | 4.0 | 0.00 | 0.01 | 0.00 | 50 | 1013.7 |
| 20260507201324 | 45 | 188 | 0.0 | 2.0 | 0.00 | 0.01 | 0.00 | 56 | 1013.8 |
| 20260507195823 | 44 | 91 | 2.0 | 5.0 | 0.00 | 0.01 | 0.00 | 57 | 1013.8 |
| 20260507185818 | 42 | 189 | 1.0 | 3.0 | 0.00 | 0.01 | 0.00 | 61 | 1014.1 |
| 20260507184318 | 41 | 148 | 0.0 | 1.0 | 0.00 | 0.01 | 0.00 | 63 | 1014.2 |
| 20260507182821 | 41 | 121 | 1.0 | 3.0 | 0.00 | 0.01 | 0.00 | 64 | 1014.4 |
| 20260507181322 | 41 | 111 | 2.0 | 4.0 | 0.00 | 0.01 | 0.00 | 64 | 1014.4 |
| 20260507175824 | 40 | 76 | 0.0 | 5.0 | 0.00 | 0.01 | 0.00 | 66 | 1014.4 |
| 20260507174323 | 40 | 79 | 0.0 | 5.0 | 0.00 | 0.01 | 0.00 | 67 | 1014.5 |
| 20260507171311 | 38 | 113 | 1.0 | 4.0 | 0.00 | 0.01 | 0.00 | 68 | 1014.5 |
| 20260507165812 | 38 | 105 | 0.0 | 3.0 | 0.00 | 0.01 | 0.00 | 70 | 1014.5 |
| 20260507164312 | 37 | 121 | 0.0 | 2.0 | 0.00 | 0.01 | 0.00 | 71 | 1014.5 |
| 20260507162814 | 37 | 121 | 2.0 | 3.0 | 0.00 | 0.01 | 0.00 | 73 | 1014.6 |
| 20260507161319 | 36 | 78 | 0.0 | 2.0 | 0.00 | 0.01 | 0.00 | 75 | 1014.6 |
| 20260507154322 | 34 | 203 | 0.0 | 0.0 | 0.00 | 0.01 | 0.00 | 79 | 1014.5 |
| 20260507152821 | 34 | 203 | 0.0 | 1.0 | 0.00 | 0.01 | 0.00 | 80 | 1014.5 |
| 20260507145824 | 33 | 203 | 0.0 | 0.0 | 0.00 | 0.01 | 0.00 | 82 | 1014.4 |
| 20260507144309 | 32 | 203 | 0.0 | 0.0 | 0.00 | 0.01 | 0.00 | 83 | 1014.4 |
| 20260507142810 | 32 | 203 | 0.0 | 0.0 | 0.00 | 0.01 | 0.00 | 82 | 1014.5 |
| 20260507141314 | 32 | 203 | 0.0 | 0.0 | 0.00 | 0.01 | 0.00 | 82 | 1014.4 |
| 20260507134315 | 32 | 203 | 0.0 | 0.0 | 0.00 | 0.01 | 0.00 | 81 | 1014.4 |
| 20260507132818 | 32 | 203 | 0.0 | 0.0 | 0.00 | 0.01 | 0.00 | 81 | 1014.3 |
| 20260507131318 | 32 | 203 | 0.0 | 0.0 | 0.00 | 0.01 | 0.00 | 80 | 1014.4 |
| 20260507125820 | 32 | 203 | 0.0 | 0.0 | 0.00 | 0.01 | 0.00 | 80 | 1014.4 |
| 20260507124320 | 32 | 203 | 0.0 | 0.0 | 0.00 | 0.01 | 0.00 | 80 | 1014.4 |
| 20260507122823 | 32 | 203 | 0.0 | 0.0 | 0.00 | 0.01 | 0.00 | 79 | 1014.3 |